sensor_id;sensor_type;location;lat;lon;timestamp;temperature;humidity
56240;DHT22;42154;51.992;5.896;2024-02-23T00:00:28;6.10;99.90
56240;DHT22;42154;51.992;5.896;2024-02-23T00:02:54;6.10;99.90
56240;DHT22;42154;51.992;5.896;2024-02-23T00:05:22;6.10;99.90
56240;DHT22;42154;51.992;5.896;2024-02-23T00:07:47;6.10;99.90
56240;DHT22;42154;51.992;5.896;2024-02-23T00:10:13;6.10;99.90
56240;DHT22;42154;51.992;5.896;2024-02-23T00:12:39;6.10;99.90
56240;DHT22;42154;51.992;5.896;2024-02-23T00:15:05;6.10;99.90
56240;DHT22;42154;51.992;5.896;2024-02-23T00:17:31;6.00;99.90
56240;DHT22;42154;51.992;5.896;2024-02-23T00:19:56;6.10;99.90
56240;DHT22;42154;51.992;5.896;2024-02-23T00:22:22;6.10;99.90
56240;DHT22;42154;51.992;5.896;2024-02-23T00:24:48;6.10;99.90
56240;DHT22;42154;51.992;5.896;2024-02-23T00:27:14;6.10;99.90
56240;DHT22;42154;51.992;5.896;2024-02-23T00:29:39;6.10;99.90
56240;DHT22;42154;51.992;5.896;2024-02-23T00:32:06;6.00;99.90
56240;DHT22;42154;51.992;5.896;2024-02-23T00:34:32;6.10;99.90
56240;DHT22;42154;51.992;5.896;2024-02-23T00:36:58;6.10;99.90
56240;DHT22;42154;51.992;5.896;2024-02-23T00:39:23;6.10;99.90
56240;DHT22;42154;51.992;5.896;2024-02-23T00:41:49;6.20;99.90
56240;DHT22;42154;51.992;5.896;2024-02-23T00:44:15;6.10;99.90
56240;DHT22;42154;51.992;5.896;2024-02-23T00:46:41;6.10;99.90
56240;DHT22;42154;51.992;5.896;2024-02-23T00:49:07;6.10;99.90
56240;DHT22;42154;51.992;5.896;2024-02-23T00:51:32;6.10;99.90
56240;DHT22;42154;51.992;5.896;2024-02-23T00:53:58;6.10;99.90
56240;DHT22;42154;51.992;5.896;2024-02-23T00:56:25;6.10;99.90
56240;DHT22;42154;51.992;5.896;2024-02-23T00:58:51;6.10;99.90
56240;DHT22;42154;51.992;5.896;2024-02-23T01:01:17;6.10;99.90
56240;DHT22;42154;51.992;5.896;2024-02-23T01:03:42;6.00;99.90
56240;DHT22;42154;51.992;5.896;2024-02-23T01:06:08;6.00;99.90
56240;DHT22;42154;51.992;5.896;2024-02-23T01:08:34;5.90;99.90
56240;DHT22;42154;51.992;5.896;2024-02-23T01:11:01;5.80;99.90
56240;DHT22;42154;51.992;5.896;2024-02-23T01:13:27;5.80;99.90
56240;DHT22;42154;51.992;5.896;2024-02-23T01:15:53;5.80;99.90
56240;DHT22;42154;51.992;5.896;2024-02-23T01:18:19;5.70;99.90
56240;DHT22;42154;51.992;5.896;2024-02-23T01:20:45;5.80;99.90
56240;DHT22;42154;51.992;5.896;2024-02-23T01:23:11;5.80;99.90
56240;DHT22;42154;51.992;5.896;2024-02-23T01:25:37;5.80;99.90
56240;DHT22;42154;51.992;5.896;2024-02-23T01:28:03;5.90;99.90
56240;DHT22;42154;51.992;5.896;2024-02-23T01:30:29;6.00;99.90
56240;DHT22;42154;51.992;5.896;2024-02-23T01:32:55;6.00;99.90
56240;DHT22;42154;51.992;5.896;2024-02-23T01:35:20;6.10;99.90
56240;DHT22;42154;51.992;5.896;2024-02-23T01:37:46;6.10;99.90
56240;DHT22;42154;51.992;5.896;2024-02-23T01:40:12;6.10;99.90
56240;DHT22;42154;51.992;5.896;2024-02-23T01:42:38;6.10;99.90
56240;DHT22;42154;51.992;5.896;2024-02-23T01:45:04;6.20;99.90
56240;DHT22;42154;51.992;5.896;2024-02-23T01:47:30;6.20;99.90
56240;DHT22;42154;51.992;5.896;2024-02-23T01:49:58;6.20;99.90
56240;DHT22;42154;51.992;5.896;2024-02-23T01:52:24;6.30;99.90
56240;DHT22;42154;51.992;5.896;2024-02-23T01:54:50;6.10;99.90
56240;DHT22;42154;51.992;5.896;2024-02-23T01:57:17;6.10;99.90
56240;DHT22;42154;51.992;5.896;2024-02-23T01:59:43;6.10;99.90
56240;DHT22;42154;51.992;5.896;2024-02-23T02:02:09;6.20;99.90
56240;DHT22;42154;51.992;5.896;2024-02-23T02:04:34;6.00;99.90
56240;DHT22;42154;51.992;5.896;2024-02-23T02:07:01;6.00;99.90
56240;DHT22;42154;51.992;5.896;2024-02-23T02:09:27;5.90;99.90
56240;DHT22;42154;51.992;5.896;2024-02-23T02:11:52;5.90;99.90
56240;DHT22;42154;51.992;5.896;2024-02-23T02:14:19;5.80;99.90
56240;DHT22;42154;51.992;5.896;2024-02-23T02:16:45;5.80;99.90
56240;DHT22;42154;51.992;5.896;2024-02-23T02:19:11;5.80;99.90
56240;DHT22;42154;51.992;5.896;2024-02-23T02:21:37;5.80;99.90
56240;DHT22;42154;51.992;5.896;2024-02-23T02:24:03;5.80;99.90
56240;DHT22;42154;51.992;5.896;2024-02-23T02:26:30;5.80;99.90
56240;DHT22;42154;51.992;5.896;2024-02-23T02:28:56;5.70;99.90
56240;DHT22;42154;51.992;5.896;2024-02-23T02:31:21;5.70;99.90
56240;DHT22;42154;51.992;5.896;2024-02-23T02:33:47;5.60;99.90
56240;DHT22;42154;51.992;5.896;2024-02-23T02:36:13;5.60;99.90
56240;DHT22;42154;51.992;5.896;2024-02-23T02:38:39;5.60;99.90
56240;DHT22;42154;51.992;5.896;2024-02-23T02:41:04;5.70;99.90
56240;DHT22;42154;51.992;5.896;2024-02-23T02:43:31;5.60;99.90
56240;DHT22;42154;51.992;5.896;2024-02-23T02:45:57;5.60;99.90
56240;DHT22;42154;51.992;5.896;2024-02-23T02:48:23;5.60;99.90
56240;DHT22;42154;51.992;5.896;2024-02-23T02:50:50;5.60;99.90
56240;DHT22;42154;51.992;5.896;2024-02-23T02:53:16;5.60;99.90
56240;DHT22;42154;51.992;5.896;2024-02-23T02:55:43;5.60;99.90
56240;DHT22;42154;51.992;5.896;2024-02-23T02:58:11;5.70;99.90
56240;DHT22;42154;51.992;5.896;2024-02-23T03:00:37;5.70;99.90
56240;DHT22;42154;51.992;5.896;2024-02-23T03:03:02;5.70;99.90
56240;DHT22;42154;51.992;5.896;2024-02-23T03:05:28;5.80;99.90
56240;DHT22;42154;51.992;5.896;2024-02-23T03:07:54;5.80;99.90
56240;DHT22;42154;51.992;5.896;2024-02-23T03:10:19;5.80;99.90
56240;DHT22;42154;51.992;5.896;2024-02-23T03:12:45;5.80;99.90
56240;DHT22;42154;51.992;5.896;2024-02-23T03:15:11;5.80;99.90
56240;DHT22;42154;51.992;5.896;2024-02-23T03:17:37;5.80;99.90
56240;DHT22;42154;51.992;5.896;2024-02-23T03:20:04;5.90;99.90
56240;DHT22;42154;51.992;5.896;2024-02-23T03:22:37;5.90;99.90
56240;DHT22;42154;51.992;5.896;2024-02-23T03:25:03;5.80;99.90
56240;DHT22;42154;51.992;5.896;2024-02-23T03:27:36;5.80;99.90
56240;DHT22;42154;51.992;5.896;2024-02-23T03:30:06;5.80;99.90
56240;DHT22;42154;51.992;5.896;2024-02-23T03:32:33;5.80;99.90
56240;DHT22;42154;51.992;5.896;2024-02-23T03:35:03;5.80;99.90
56240;DHT22;42154;51.992;5.896;2024-02-23T03:37:29;5.80;99.90
56240;DHT22;42154;51.992;5.896;2024-02-23T03:39:55;5.80;99.90
56240;DHT22;42154;51.992;5.896;2024-02-23T03:42:21;5.80;99.90
56240;DHT22;42154;51.992;5.896;2024-02-23T03:44:47;5.80;99.90
56240;DHT22;42154;51.992;5.896;2024-02-23T03:47:12;5.90;99.90
56240;DHT22;42154;51.992;5.896;2024-02-23T03:49:38;5.80;99.90
56240;DHT22;42154;51.992;5.896;2024-02-23T03:52:05;5.90;99.90
56240;DHT22;42154;51.992;5.896;2024-02-23T03:54:30;5.90;99.90
56240;DHT22;42154;51.992;5.896;2024-02-23T03:56:57;5.80;99.90
56240;DHT22;42154;51.992;5.896;2024-02-23T03:59:23;5.80;99.90
56240;DHT22;42154;51.992;5.896;2024-02-23T04:01:49;5.80;99.90
56240;DHT22;42154;51.992;5.896;2024-02-23T04:04:15;5.90;99.90
56240;DHT22;42154;51.992;5.896;2024-02-23T04:06:40;5.70;99.90
56240;DHT22;42154;51.992;5.896;2024-02-23T04:09:06;5.80;99.90
56240;DHT22;42154;51.992;5.896;2024-02-23T04:11:34;5.70;99.90
56240;DHT22;42154;51.992;5.896;2024-02-23T04:14:00;5.80;99.90
56240;DHT22;42154;51.992;5.896;2024-02-23T04:16:26;5.70;99.90
56240;DHT22;42154;51.992;5.896;2024-02-23T04:18:53;5.70;99.90
56240;DHT22;42154;51.992;5.896;2024-02-23T04:21:18;5.70;99.90
56240;DHT22;42154;51.992;5.896;2024-02-23T04:23:45;5.70;99.90
56240;DHT22;42154;51.992;5.896;2024-02-23T04:26:11;5.70;99.90
56240;DHT22;42154;51.992;5.896;2024-02-23T04:28:40;5.70;99.90
56240;DHT22;42154;51.992;5.896;2024-02-23T04:31:06;5.70;99.90
56240;DHT22;42154;51.992;5.896;2024-02-23T04:33:32;5.60;99.90
56240;DHT22;42154;51.992;5.896;2024-02-23T04:35:58;5.60;99.90
56240;DHT22;42154;51.992;5.896;2024-02-23T04:38:24;5.60;99.90
56240;DHT22;42154;51.992;5.896;2024-02-23T04:40:50;5.60;99.90
56240;DHT22;42154;51.992;5.896;2024-02-23T04:43:15;5.70;99.90
56240;DHT22;42154;51.992;5.896;2024-02-23T04:45:41;5.70;99.90
56240;DHT22;42154;51.992;5.896;2024-02-23T04:48:07;5.70;99.90
56240;DHT22;42154;51.992;5.896;2024-02-23T04:50:33;5.70;99.90
56240;DHT22;42154;51.992;5.896;2024-02-23T04:52:59;5.80;99.90
56240;DHT22;42154;51.992;5.896;2024-02-23T04:55:24;5.70;99.90
56240;DHT22;42154;51.992;5.896;2024-02-23T04:57:50;5.80;99.90
56240;DHT22;42154;51.992;5.896;2024-02-23T05:00:16;5.80;99.90
56240;DHT22;42154;51.992;5.896;2024-02-23T05:02:42;5.80;99.90
56240;DHT22;42154;51.992;5.896;2024-02-23T05:05:08;5.70;99.90
56240;DHT22;42154;51.992;5.896;2024-02-23T05:07:34;5.80;99.90
56240;DHT22;42154;51.992;5.896;2024-02-23T05:10:00;5.80;99.90
56240;DHT22;42154;51.992;5.896;2024-02-23T05:12:26;5.80;99.90
56240;DHT22;42154;51.992;5.896;2024-02-23T05:14:52;5.90;99.90
56240;DHT22;42154;51.992;5.896;2024-02-23T05:17:18;5.90;99.90
56240;DHT22;42154;51.992;5.896;2024-02-23T05:19:43;5.80;99.90
56240;DHT22;42154;51.992;5.896;2024-02-23T05:22:09;5.90;99.90
56240;DHT22;42154;51.992;5.896;2024-02-23T05:24:35;5.90;99.90
56240;DHT22;42154;51.992;5.896;2024-02-23T05:27:00;5.90;99.90
56240;DHT22;42154;51.992;5.896;2024-02-23T05:29:29;6.00;99.90
56240;DHT22;42154;51.992;5.896;2024-02-23T05:31:55;5.90;99.90
56240;DHT22;42154;51.992;5.896;2024-02-23T05:34:21;6.00;99.90
56240;DHT22;42154;51.992;5.896;2024-02-23T05:36:47;6.00;99.90
56240;DHT22;42154;51.992;5.896;2024-02-23T05:39:13;6.00;99.90
56240;DHT22;42154;51.992;5.896;2024-02-23T05:41:41;6.00;99.90
56240;DHT22;42154;51.992;5.896;2024-02-23T05:44:07;6.00;99.90
56240;DHT22;42154;51.992;5.896;2024-02-23T05:46:34;6.00;99.90
56240;DHT22;42154;51.992;5.896;2024-02-23T05:49:00;6.10;99.90
56240;DHT22;42154;51.992;5.896;2024-02-23T05:51:28;6.00;99.90
56240;DHT22;42154;51.992;5.896;2024-02-23T05:53:54;6.10;99.90
56240;DHT22;42154;51.992;5.896;2024-02-23T05:56:20;6.10;99.90
56240;DHT22;42154;51.992;5.896;2024-02-23T05:58:47;6.10;99.90
56240;DHT22;42154;51.992;5.896;2024-02-23T06:01:12;6.20;99.90
56240;DHT22;42154;51.992;5.896;2024-02-23T06:03:38;6.10;99.90
56240;DHT22;42154;51.992;5.896;2024-02-23T06:06:07;6.10;99.90
56240;DHT22;42154;51.992;5.896;2024-02-23T06:08:33;6.10;99.90
56240;DHT22;42154;51.992;5.896;2024-02-23T06:10:59;6.10;99.90
56240;DHT22;42154;51.992;5.896;2024-02-23T06:13:25;6.20;99.90
56240;DHT22;42154;51.992;5.896;2024-02-23T06:15:51;6.30;99.90
56240;DHT22;42154;51.992;5.896;2024-02-23T06:18:17;6.20;99.90
56240;DHT22;42154;51.992;5.896;2024-02-23T06:20:43;6.10;99.90
56240;DHT22;42154;51.992;5.896;2024-02-23T06:23:08;6.20;99.90
56240;DHT22;42154;51.992;5.896;2024-02-23T06:25:34;6.10;99.90
56240;DHT22;42154;51.992;5.896;2024-02-23T06:28:00;6.10;99.90
56240;DHT22;42154;51.992;5.896;2024-02-23T06:30:26;6.10;99.90
56240;DHT22;42154;51.992;5.896;2024-02-23T06:32:52;6.10;99.90
56240;DHT22;42154;51.992;5.896;2024-02-23T06:35:18;6.10;99.90
56240;DHT22;42154;51.992;5.896;2024-02-23T06:37:44;6.10;99.90
56240;DHT22;42154;51.992;5.896;2024-02-23T06:40:10;6.10;99.90
56240;DHT22;42154;51.992;5.896;2024-02-23T06:42:36;6.00;99.90
56240;DHT22;42154;51.992;5.896;2024-02-23T06:45:01;6.10;99.90
56240;DHT22;42154;51.992;5.896;2024-02-23T06:47:27;6.10;99.90
56240;DHT22;42154;51.992;5.896;2024-02-23T06:49:53;6.10;99.90
56240;DHT22;42154;51.992;5.896;2024-02-23T06:52:19;6.10;99.90
56240;DHT22;42154;51.992;5.896;2024-02-23T06:54:45;6.20;99.90
56240;DHT22;42154;51.992;5.896;2024-02-23T06:57:10;6.20;99.90
56240;DHT22;42154;51.992;5.896;2024-02-23T06:59:36;6.20;99.90
56240;DHT22;42154;51.992;5.896;2024-02-23T07:02:02;6.20;99.90
56240;DHT22;42154;51.992;5.896;2024-02-23T07:04:28;6.20;99.90
56240;DHT22;42154;51.992;5.896;2024-02-23T07:06:55;6.30;99.90
56240;DHT22;42154;51.992;5.896;2024-02-23T07:09:21;6.30;99.90
56240;DHT22;42154;51.992;5.896;2024-02-23T07:11:46;6.30;99.90
56240;DHT22;42154;51.992;5.896;2024-02-23T07:14:12;6.30;99.90
56240;DHT22;42154;51.992;5.896;2024-02-23T07:16:40;6.40;99.90
56240;DHT22;42154;51.992;5.896;2024-02-23T07:19:07;6.40;99.90
56240;DHT22;42154;51.992;5.896;2024-02-23T07:21:33;6.40;99.90
56240;DHT22;42154;51.992;5.896;2024-02-23T07:23:59;6.40;99.90
56240;DHT22;42154;51.992;5.896;2024-02-23T07:26:26;6.40;99.90
56240;DHT22;42154;51.992;5.896;2024-02-23T07:28:53;6.40;99.90
56240;DHT22;42154;51.992;5.896;2024-02-23T07:31:19;6.40;99.90
56240;DHT22;42154;51.992;5.896;2024-02-23T07:33:45;6.50;99.90
56240;DHT22;42154;51.992;5.896;2024-02-23T07:36:14;6.50;99.90
56240;DHT22;42154;51.992;5.896;2024-02-23T07:38:40;6.50;99.90
56240;DHT22;42154;51.992;5.896;2024-02-23T07:41:06;6.50;99.90
56240;DHT22;42154;51.992;5.896;2024-02-23T07:43:32;6.60;99.90
56240;DHT22;42154;51.992;5.896;2024-02-23T07:45:58;6.60;99.90
56240;DHT22;42154;51.992;5.896;2024-02-23T07:48:24;6.60;99.90
56240;DHT22;42154;51.992;5.896;2024-02-23T07:50:49;6.60;99.90
56240;DHT22;42154;51.992;5.896;2024-02-23T07:53:15;6.70;99.90
56240;DHT22;42154;51.992;5.896;2024-02-23T07:55:41;6.70;99.90
56240;DHT22;42154;51.992;5.896;2024-02-23T07:58:06;6.70;99.90
56240;DHT22;42154;51.992;5.896;2024-02-23T08:00:32;6.70;99.90
56240;DHT22;42154;51.992;5.896;2024-02-23T08:03:00;6.80;99.90
56240;DHT22;42154;51.992;5.896;2024-02-23T08:05:25;6.70;99.90
56240;DHT22;42154;51.992;5.896;2024-02-23T08:07:51;6.80;99.90
56240;DHT22;42154;51.992;5.896;2024-02-23T08:10:17;6.80;99.90
56240;DHT22;42154;51.992;5.896;2024-02-23T08:12:43;6.90;99.90
56240;DHT22;42154;51.992;5.896;2024-02-23T08:15:09;7.00;99.90
56240;DHT22;42154;51.992;5.896;2024-02-23T08:17:35;7.00;99.90
56240;DHT22;42154;51.992;5.896;2024-02-23T08:20:01;7.10;99.90
56240;DHT22;42154;51.992;5.896;2024-02-23T08:22:26;7.20;99.90
56240;DHT22;42154;51.992;5.896;2024-02-23T08:24:53;7.20;99.90
56240;DHT22;42154;51.992;5.896;2024-02-23T08:27:19;7.20;99.90
56240;DHT22;42154;51.992;5.896;2024-02-23T08:29:45;7.10;99.90
56240;DHT22;42154;51.992;5.896;2024-02-23T08:32:10;7.10;99.90
56240;DHT22;42154;51.992;5.896;2024-02-23T08:34:36;7.00;99.90
56240;DHT22;42154;51.992;5.896;2024-02-23T08:37:02;7.10;99.90
56240;DHT22;42154;51.992;5.896;2024-02-23T08:39:28;7.10;99.90
56240;DHT22;42154;51.992;5.896;2024-02-23T08:41:54;7.10;99.90
56240;DHT22;42154;51.992;5.896;2024-02-23T08:44:20;7.20;99.90
56240;DHT22;42154;51.992;5.896;2024-02-23T08:46:46;7.20;99.90
56240;DHT22;42154;51.992;5.896;2024-02-23T08:49:14;7.30;99.90
56240;DHT22;42154;51.992;5.896;2024-02-23T08:51:40;7.40;99.90
56240;DHT22;42154;51.992;5.896;2024-02-23T08:54:06;7.50;99.90
56240;DHT22;42154;51.992;5.896;2024-02-23T08:56:39;7.60;99.90
56240;DHT22;42154;51.992;5.896;2024-02-23T08:59:08;7.60;99.90
56240;DHT22;42154;51.992;5.896;2024-02-23T09:01:35;7.70;99.90
56240;DHT22;42154;51.992;5.896;2024-02-23T09:04:01;7.80;99.90
56240;DHT22;42154;51.992;5.896;2024-02-23T09:06:27;7.80;99.90
56240;DHT22;42154;51.992;5.896;2024-02-23T09:08:53;7.80;99.90
56240;DHT22;42154;51.992;5.896;2024-02-23T09:11:18;7.80;99.90
56240;DHT22;42154;51.992;5.896;2024-02-23T09:13:44;7.80;99.90
56240;DHT22;42154;51.992;5.896;2024-02-23T09:16:10;7.70;99.90
56240;DHT22;42154;51.992;5.896;2024-02-23T09:18:35;7.70;99.90
56240;DHT22;42154;51.992;5.896;2024-02-23T09:21:01;7.60;99.90
56240;DHT22;42154;51.992;5.896;2024-02-23T09:23:27;7.70;99.90
56240;DHT22;42154;51.992;5.896;2024-02-23T09:25:53;7.70;99.90
56240;DHT22;42154;51.992;5.896;2024-02-23T09:28:18;7.70;99.90
56240;DHT22;42154;51.992;5.896;2024-02-23T09:30:44;7.70;99.90
56240;DHT22;42154;51.992;5.896;2024-02-23T09:33:10;7.70;99.90
56240;DHT22;42154;51.992;5.896;2024-02-23T09:35:36;7.70;99.90
56240;DHT22;42154;51.992;5.896;2024-02-23T09:38:01;7.70;99.90
56240;DHT22;42154;51.992;5.896;2024-02-23T09:40:28;7.70;99.90
56240;DHT22;42154;51.992;5.896;2024-02-23T09:42:58;7.70;99.90
56240;DHT22;42154;51.992;5.896;2024-02-23T09:45:25;7.70;99.90
56240;DHT22;42154;51.992;5.896;2024-02-23T09:47:56;7.70;99.90
56240;DHT22;42154;51.992;5.896;2024-02-23T09:50:23;7.70;99.90
56240;DHT22;42154;51.992;5.896;2024-02-23T09:52:49;7.70;99.90
56240;DHT22;42154;51.992;5.896;2024-02-23T09:55:21;7.70;99.90
56240;DHT22;42154;51.992;5.896;2024-02-23T09:57:47;7.70;99.90
56240;DHT22;42154;51.992;5.896;2024-02-23T10:00:16;7.80;99.90
56240;DHT22;42154;51.992;5.896;2024-02-23T10:02:43;7.80;99.90
56240;DHT22;42154;51.992;5.896;2024-02-23T10:05:10;7.90;99.90
56240;DHT22;42154;51.992;5.896;2024-02-23T10:07:37;8.00;99.90
56240;DHT22;42154;51.992;5.896;2024-02-23T10:10:07;8.00;99.90
56240;DHT22;42154;51.992;5.896;2024-02-23T10:12:34;8.10;99.90
56240;DHT22;42154;51.992;5.896;2024-02-23T10:15:00;8.20;99.90
56240;DHT22;42154;51.992;5.896;2024-02-23T10:17:32;8.20;99.90
56240;DHT22;42154;51.992;5.896;2024-02-23T10:19:59;8.10;99.90
56240;DHT22;42154;51.992;5.896;2024-02-23T10:22:25;8.10;99.90
56240;DHT22;42154;51.992;5.896;2024-02-23T10:24:51;8.00;99.90
56240;DHT22;42154;51.992;5.896;2024-02-23T10:27:17;7.90;99.90
56240;DHT22;42154;51.992;5.896;2024-02-23T10:29:43;7.90;99.90
56240;DHT22;42154;51.992;5.896;2024-02-23T10:32:13;7.90;99.90
56240;DHT22;42154;51.992;5.896;2024-02-23T10:34:42;7.90;99.90
56240;DHT22;42154;51.992;5.896;2024-02-23T10:37:08;7.90;99.90
56240;DHT22;42154;51.992;5.896;2024-02-23T10:39:37;7.90;99.90
56240;DHT22;42154;51.992;5.896;2024-02-23T10:42:04;7.90;99.90
56240;DHT22;42154;51.992;5.896;2024-02-23T10:44:31;7.80;99.90
56240;DHT22;42154;51.992;5.896;2024-02-23T10:46:58;7.80;99.90
56240;DHT22;42154;51.992;5.896;2024-02-23T10:49:25;7.80;99.90
56240;DHT22;42154;51.992;5.896;2024-02-23T10:51:52;7.80;99.90
56240;DHT22;42154;51.992;5.896;2024-02-23T10:54:22;7.90;99.90
56240;DHT22;42154;51.992;5.896;2024-02-23T10:56:50;8.00;99.90
56240;DHT22;42154;51.992;5.896;2024-02-23T10:59:17;8.10;99.90
56240;DHT22;42154;51.992;5.896;2024-02-23T11:01:54;8.10;99.90
56240;DHT22;42154;51.992;5.896;2024-02-23T11:04:23;8.10;99.90
56240;DHT22;42154;51.992;5.896;2024-02-23T11:06:55;8.10;99.90
56240;DHT22;42154;51.992;5.896;2024-02-23T11:09:25;8.10;99.90
56240;DHT22;42154;51.992;5.896;2024-02-23T11:11:55;8.10;99.90
56240;DHT22;42154;51.992;5.896;2024-02-23T11:14:37;8.20;99.90
56240;DHT22;42154;51.992;5.896;2024-02-23T11:17:04;8.10;99.90
56240;DHT22;42154;51.992;5.896;2024-02-23T11:19:39;8.10;99.90
56240;DHT22;42154;51.992;5.896;2024-02-23T11:22:09;8.10;99.90
56240;DHT22;42154;51.992;5.896;2024-02-23T11:24:34;8.00;99.90
56240;DHT22;42154;51.992;5.896;2024-02-23T11:27:01;8.00;99.90
56240;DHT22;42154;51.992;5.896;2024-02-23T11:29:34;8.10;99.90
56240;DHT22;42154;51.992;5.896;2024-02-23T11:32:01;8.10;99.90
56240;DHT22;42154;51.992;5.896;2024-02-23T11:34:30;8.10;99.90
56240;DHT22;42154;51.992;5.896;2024-02-23T11:36:56;8.10;99.90
56240;DHT22;42154;51.992;5.896;2024-02-23T11:39:24;8.20;99.90
56240;DHT22;42154;51.992;5.896;2024-02-23T11:41:51;8.20;99.90
56240;DHT22;42154;51.992;5.896;2024-02-23T11:44:17;8.30;99.90
56240;DHT22;42154;51.992;5.896;2024-02-23T11:46:46;8.30;99.90
56240;DHT22;42154;51.992;5.896;2024-02-23T11:49:13;8.30;99.90
56240;DHT22;42154;51.992;5.896;2024-02-23T11:51:39;8.30;99.90
56240;DHT22;42154;51.992;5.896;2024-02-23T11:54:06;8.30;99.90
56240;DHT22;42154;51.992;5.896;2024-02-23T11:56:32;8.40;99.90
56240;DHT22;42154;51.992;5.896;2024-02-23T11:58:58;8.60;99.90
56240;DHT22;42154;51.992;5.896;2024-02-23T12:01:24;8.60;99.90
56240;DHT22;42154;51.992;5.896;2024-02-23T12:03:49;8.60;99.90
56240;DHT22;42154;51.992;5.896;2024-02-23T12:06:17;8.60;99.90
56240;DHT22;42154;51.992;5.896;2024-02-23T12:08:43;8.60;99.90
56240;DHT22;42154;51.992;5.896;2024-02-23T12:11:11;8.60;99.90
56240;DHT22;42154;51.992;5.896;2024-02-23T12:13:38;8.60;99.90
56240;DHT22;42154;51.992;5.896;2024-02-23T12:16:04;8.50;99.90
56240;DHT22;42154;51.992;5.896;2024-02-23T12:18:35;8.50;99.90
56240;DHT22;42154;51.992;5.896;2024-02-23T12:21:06;8.50;99.90
56240;DHT22;42154;51.992;5.896;2024-02-23T12:23:58;8.40;99.90
56240;DHT22;42154;51.992;5.896;2024-02-23T12:26:24;8.40;99.90
56240;DHT22;42154;51.992;5.896;2024-02-23T12:28:49;8.40;99.90
56240;DHT22;42154;51.992;5.896;2024-02-23T12:31:15;8.40;99.90
56240;DHT22;42154;51.992;5.896;2024-02-23T12:33:41;8.40;99.90
56240;DHT22;42154;51.992;5.896;2024-02-23T12:36:07;8.40;99.90
56240;DHT22;42154;51.992;5.896;2024-02-23T12:38:34;8.50;99.90
56240;DHT22;42154;51.992;5.896;2024-02-23T12:41:01;8.50;99.90
56240;DHT22;42154;51.992;5.896;2024-02-23T12:43:28;8.60;99.90
56240;DHT22;42154;51.992;5.896;2024-02-23T12:45:54;8.60;99.90
56240;DHT22;42154;51.992;5.896;2024-02-23T12:48:21;8.60;99.90
56240;DHT22;42154;51.992;5.896;2024-02-23T12:50:47;8.70;99.90
56240;DHT22;42154;51.992;5.896;2024-02-23T12:53:35;8.70;99.90
56240;DHT22;42154;51.992;5.896;2024-02-23T12:56:05;8.80;99.90
56240;DHT22;42154;51.992;5.896;2024-02-23T12:58:36;8.90;99.90
56240;DHT22;42154;51.992;5.896;2024-02-23T13:01:03;8.90;99.90
56240;DHT22;42154;51.992;5.896;2024-02-23T13:03:29;9.00;99.90
56240;DHT22;42154;51.992;5.896;2024-02-23T13:05:57;9.00;99.90
56240;DHT22;42154;51.992;5.896;2024-02-23T13:08:24;9.00;99.90
56240;DHT22;42154;51.992;5.896;2024-02-23T13:10:51;9.10;99.90
56240;DHT22;42154;51.992;5.896;2024-02-23T13:13:17;9.10;99.90
56240;DHT22;42154;51.992;5.896;2024-02-23T13:15:46;9.20;99.90
56240;DHT22;42154;51.992;5.896;2024-02-23T13:18:12;9.20;99.90
56240;DHT22;42154;51.992;5.896;2024-02-23T13:20:39;9.30;99.90
56240;DHT22;42154;51.992;5.896;2024-02-23T13:23:05;9.30;99.90
56240;DHT22;42154;51.992;5.896;2024-02-23T13:25:34;9.40;99.90
56240;DHT22;42154;51.992;5.896;2024-02-23T13:28:00;9.40;99.90
56240;DHT22;42154;51.992;5.896;2024-02-23T13:30:26;9.50;99.90
56240;DHT22;42154;51.992;5.896;2024-02-23T13:32:52;9.60;99.90
56240;DHT22;42154;51.992;5.896;2024-02-23T13:35:18;9.70;99.90
56240;DHT22;42154;51.992;5.896;2024-02-23T13:37:45;9.80;99.90
56240;DHT22;42154;51.992;5.896;2024-02-23T13:40:11;10.00;99.90
56240;DHT22;42154;51.992;5.896;2024-02-23T13:42:37;10.10;99.90
56240;DHT22;42154;51.992;5.896;2024-02-23T13:45:07;10.10;99.90
56240;DHT22;42154;51.992;5.896;2024-02-23T13:47:33;10.10;99.90
56240;DHT22;42154;51.992;5.896;2024-02-23T13:50:00;10.10;99.90
56240;DHT22;42154;51.992;5.896;2024-02-23T13:52:26;10.10;99.90
56240;DHT22;42154;51.992;5.896;2024-02-23T13:54:51;10.00;99.90
56240;DHT22;42154;51.992;5.896;2024-02-23T13:57:17;10.10;99.90
56240;DHT22;42154;51.992;5.896;2024-02-23T13:59:43;10.10;99.90
56240;DHT22;42154;51.992;5.896;2024-02-23T14:02:09;10.10;99.90
56240;DHT22;42154;51.992;5.896;2024-02-23T14:04:34;10.10;99.90
56240;DHT22;42154;51.992;5.896;2024-02-23T14:07:01;10.00;99.90
56240;DHT22;42154;51.992;5.896;2024-02-23T14:09:27;10.10;99.90
56240;DHT22;42154;51.992;5.896;2024-02-23T14:11:53;10.10;99.90
56240;DHT22;42154;51.992;5.896;2024-02-23T14:14:19;10.10;99.90
56240;DHT22;42154;51.992;5.896;2024-02-23T14:16:45;10.20;99.90
56240;DHT22;42154;51.992;5.896;2024-02-23T14:19:11;10.20;99.90
56240;DHT22;42154;51.992;5.896;2024-02-23T14:21:37;10.20;99.90
56240;DHT22;42154;51.992;5.896;2024-02-23T14:24:03;10.30;99.90
56240;DHT22;42154;51.992;5.896;2024-02-23T14:26:29;10.40;99.90
56240;DHT22;42154;51.992;5.896;2024-02-23T14:28:55;10.40;99.90
56240;DHT22;42154;51.992;5.896;2024-02-23T14:31:21;10.40;99.90
56240;DHT22;42154;51.992;5.896;2024-02-23T14:33:47;10.30;99.90
56240;DHT22;42154;51.992;5.896;2024-02-23T14:36:17;10.20;99.90
56240;DHT22;42154;51.992;5.896;2024-02-23T14:38:42;10.20;99.90
56240;DHT22;42154;51.992;5.896;2024-02-23T14:41:09;10.20;99.90
56240;DHT22;42154;51.992;5.896;2024-02-23T14:43:35;10.10;99.90
56240;DHT22;42154;51.992;5.896;2024-02-23T14:46:02;10.10;99.90
56240;DHT22;42154;51.992;5.896;2024-02-23T14:48:28;10.00;99.90
56240;DHT22;42154;51.992;5.896;2024-02-23T14:50:53;9.90;99.90
56240;DHT22;42154;51.992;5.896;2024-02-23T14:53:19;9.90;99.90
56240;DHT22;42154;51.992;5.896;2024-02-23T14:55:45;9.80;99.90
56240;DHT22;42154;51.992;5.896;2024-02-23T14:58:32;9.70;99.90
56240;DHT22;42154;51.992;5.896;2024-02-23T15:00:58;9.70;99.90
56240;DHT22;42154;51.992;5.896;2024-02-23T15:03:24;9.60;99.90
56240;DHT22;42154;51.992;5.896;2024-02-23T15:05:50;9.50;99.90
56240;DHT22;42154;51.992;5.896;2024-02-23T15:08:15;9.50;99.90
56240;DHT22;42154;51.992;5.896;2024-02-23T15:10:41;9.40;99.90
56240;DHT22;42154;51.992;5.896;2024-02-23T15:13:08;9.40;99.90
56240;DHT22;42154;51.992;5.896;2024-02-23T15:15:33;9.40;99.90
56240;DHT22;42154;51.992;5.896;2024-02-23T15:18:01;9.40;99.90
56240;DHT22;42154;51.992;5.896;2024-02-23T15:20:27;9.30;99.90
56240;DHT22;42154;51.992;5.896;2024-02-23T15:22:53;9.30;99.90
56240;DHT22;42154;51.992;5.896;2024-02-23T15:25:19;9.30;99.90
56240;DHT22;42154;51.992;5.896;2024-02-23T15:27:45;9.30;99.90
56240;DHT22;42154;51.992;5.896;2024-02-23T15:30:11;9.20;99.90
56240;DHT22;42154;51.992;5.896;2024-02-23T15:32:37;9.20;99.90
56240;DHT22;42154;51.992;5.896;2024-02-23T15:35:03;9.10;99.90
56240;DHT22;42154;51.992;5.896;2024-02-23T15:37:29;9.10;99.90
56240;DHT22;42154;51.992;5.896;2024-02-23T15:39:55;9.10;99.90